createdAt,value
2022-10-11T03:01:03.497Z,4.37
2022-10-11T03:03:30.390Z,4.30
2022-10-11T03:06:02.015Z,4.40
2022-10-11T03:08:29.294Z,4.63
2022-10-11T03:10:56.273Z,4.67
2022-10-11T03:13:23.429Z,4.03
2022-10-11T03:16:02.250Z,4.37
2022-10-11T03:18:31.536Z,5.00
2022-10-11T03:20:58.629Z,4.90
2022-10-11T03:23:25.618Z,4.83
2022-10-11T03:25:52.594Z,5.20
2022-10-11T03:28:19.647Z,5.27
2022-10-11T03:30:47.737Z,4.90
2022-10-11T03:33:15.206Z,4.83
2022-10-11T03:35:45.698Z,5.00
2022-10-11T03:38:14.353Z,4.97
2022-10-11T03:40:41.443Z,4.90
2022-10-11T03:43:08.483Z,4.80
2022-10-11T03:45:35.670Z,4.73
2022-10-11T03:48:02.970Z,5.17
2022-10-11T03:50:31.267Z,4.90
2022-10-11T03:52:59.556Z,4.77
2022-10-11T03:55:26.483Z,5.33
2022-10-11T03:57:53.392Z,5.33
2022-10-11T04:00:20.535Z,4.93
2022-10-11T04:02:47.534Z,5.50
2022-10-11T04:05:14.664Z,5.20
2022-10-11T04:07:41.881Z,6.03
2022-10-11T04:10:10.653Z,5.73
2022-10-11T04:12:38.604Z,5.90
2022-10-11T04:15:07.143Z,5.93
2022-10-11T04:17:34.226Z,5.40
2022-10-11T04:20:01.249Z,5.53
2022-10-11T04:22:28.157Z,6.00
2022-10-11T04:24:55.068Z,6.20
2022-10-11T04:27:23.235Z,6.40
2022-10-11T04:29:50.154Z,8.10
2022-10-11T04:32:17.126Z,8.23
2022-10-11T04:34:44.038Z,8.53
2022-10-11T04:37:11.079Z,9.70
2022-10-11T04:39:38.225Z,9.03
2022-10-11T04:42:05.380Z,9.00
2022-10-11T04:44:33.585Z,9.10
2022-10-11T04:47:00.428Z,10.10
2022-10-11T04:49:27.496Z,9.83
2022-10-11T04:51:54.407Z,10.13
2022-10-11T04:54:21.475Z,9.33
2022-10-11T04:56:48.361Z,9.80
2022-10-11T04:59:15.402Z,9.70
2022-10-11T05:01:43.763Z,9.57
2022-10-11T05:04:10.741Z,10.70
2022-10-11T05:06:37.662Z,11.10
2022-10-11T05:09:04.714Z,11.23
2022-10-11T05:11:31.661Z,10.47
2022-10-11T05:13:58.691Z,11.17
2022-10-11T05:16:25.646Z,10.67
2022-10-11T05:18:53.909Z,11.57
2022-10-11T05:21:22.737Z,11.70
2022-10-11T05:23:51.132Z,12.10
2022-10-11T05:26:19.243Z,11.43
2022-10-11T05:28:46.942Z,12.13
2022-10-11T05:31:14.568Z,11.73
2022-10-11T05:33:42.163Z,11.87
2022-10-11T05:36:10.805Z,12.30
2022-10-11T05:38:38.714Z,11.73
2022-10-11T05:41:06.764Z,12.20
2022-10-11T05:43:33.685Z,13.30
2022-10-11T05:46:00.598Z,12.97
2022-10-11T05:48:28.508Z,12.43
2022-10-11T05:50:59.428Z,12.43
2022-10-11T05:53:28.002Z,13.00
2022-10-11T05:55:55.418Z,12.63
2022-10-11T05:58:22.911Z,12.63
2022-10-11T06:00:49.903Z,13.07
2022-10-11T06:03:17.367Z,13.03
2022-10-11T06:05:44.283Z,13.37
2022-10-11T06:08:11.290Z,13.23
2022-10-11T06:10:39.913Z,13.30
2022-10-11T06:13:07.211Z,13.27
2022-10-11T06:15:34.466Z,14.03
2022-10-11T06:18:01.598Z,12.70
2022-10-11T06:20:28.917Z,13.33
2022-10-11T06:22:55.872Z,12.90
2022-10-11T06:25:22.838Z,12.93
2022-10-11T06:27:51.153Z,13.60
2022-10-11T06:30:18.274Z,13.23
2022-10-11T06:32:45.138Z,14.00
2022-10-11T06:35:12.166Z,13.27
2022-10-11T06:37:39.050Z,13.83
2022-10-11T06:40:07.169Z,13.83
2022-10-11T06:42:34.102Z,14.03
2022-10-11T06:45:02.716Z,13.70
2022-10-11T06:47:29.643Z,13.80
2022-10-11T06:49:57.005Z,14.37
2022-10-11T06:52:23.912Z,13.23
2022-10-11T06:54:50.827Z,13.83
2022-10-11T06:57:17.817Z,13.83
2022-10-11T06:59:44.796Z,14.40
2022-10-11T07:02:13.036Z,13.20
2022-10-11T07:04:39.943Z,14.37
2022-10-11T07:07:06.850Z,14.57
2022-10-11T07:09:34.862Z,13.07
2022-10-11T07:12:01.799Z,14.03
2022-10-11T07:14:28.977Z,13.10
2022-10-11T07:16:55.886Z,14.37
2022-10-11T07:19:24.265Z,14.70
2022-10-11T07:21:51.291Z,13.30
2022-10-11T07:24:18.383Z,13.83
2022-10-11T07:26:45.320Z,13.97
2022-10-11T07:29:12.874Z,14.00
2022-10-11T07:31:42.005Z,15.63
2022-10-11T07:34:09.474Z,14.90
2022-10-11T07:36:37.779Z,15.00
2022-10-11T07:39:06.397Z,13.83
2022-10-11T07:41:33.421Z,14.70
2022-10-11T07:44:01.123Z,13.53
2022-10-11T07:46:28.082Z,13.93
2022-10-11T07:48:55.174Z,14.00
2022-10-11T07:51:23.924Z,14.27
2022-10-11T07:53:53.825Z,13.53
2022-10-11T07:56:23.138Z,13.73
2022-10-11T07:58:51.498Z,14.90
2022-10-11T08:01:19.510Z,15.10
2022-10-11T08:03:47.433Z,14.20
2022-10-11T08:06:16.134Z,13.77
2022-10-11T08:08:43.046Z,14.53
2022-10-11T08:11:19.150Z,14.13
2022-10-11T08:13:46.171Z,13.67
2022-10-11T08:16:13.872Z,13.33
2022-10-11T08:18:40.920Z,13.73
2022-10-11T08:21:08.642Z,13.40
2022-10-11T08:23:35.909Z,12.73
2022-10-11T08:26:03.447Z,14.10
2022-10-11T08:28:32.581Z,14.13
2022-10-11T08:30:59.649Z,13.30
2022-10-11T08:33:27.001Z,12.80
2022-10-11T08:35:55.037Z,13.77
2022-10-11T08:38:22.120Z,14.23
2022-10-11T08:40:52.133Z,13.30
2022-10-11T08:43:29.610Z,14.03
2022-10-11T08:46:00.135Z,13.63
2022-10-11T08:48:34.531Z,13.63
2022-10-11T08:51:02.619Z,14.03
2022-10-11T08:53:45.194Z,13.40
2022-10-11T08:56:13.995Z,13.53
2022-10-11T08:58:48.193Z,13.33
2022-10-11T09:01:20.746Z,13.63
2022-10-11T09:03:49.671Z,13.27
2022-10-11T09:06:26.422Z,13.37
2022-10-11T09:09:08.351Z,13.23
2022-10-11T09:11:48.108Z,12.37
2022-10-11T09:14:29.006Z,13.17
2022-10-11T09:17:06.932Z,13.03
2022-10-11T09:20:05.423Z,13.07
2022-10-11T09:22:43.350Z,12.97
2022-10-11T09:25:21.798Z,13.60
2022-10-11T09:28:02.965Z,12.27
2022-10-11T09:30:31.182Z,13.00
2022-10-11T09:33:09.946Z,13.80
2022-10-11T09:35:40.172Z,13.03
2022-10-11T09:38:14.542Z,13.37
2022-10-11T09:40:52.715Z,13.17
2022-10-11T09:43:19.729Z,13.17
2022-10-11T09:45:49.445Z,14.03
2022-10-11T09:48:22.480Z,14.57
2022-10-11T09:50:51.104Z,13.33
2022-10-11T09:53:19.346Z,14.07
2022-10-11T09:55:52.176Z,13.23
2022-10-11T09:58:27.967Z,13.77
2022-10-11T10:01:05.119Z,13.47
2022-10-11T10:03:37.645Z,14.07
2022-10-11T10:06:08.511Z,14.63
2022-10-11T10:08:36.494Z,14.33
2022-10-11T10:11:05.701Z,13.93
2022-10-11T10:13:45.063Z,14.40
2022-10-11T10:16:24.766Z,13.30
2022-10-11T10:18:56.594Z,14.23
2022-10-11T10:21:28.306Z,14.53
2022-10-11T10:23:56.579Z,14.63
2022-10-11T10:26:25.357Z,14.53
2022-10-11T10:28:58.845Z,14.20
2022-10-11T10:31:40.264Z,14.37
2022-10-11T10:34:26.096Z,13.57
2022-10-11T10:36:56.460Z,14.30
2022-10-11T10:39:29.179Z,13.67
2022-10-11T10:41:56.846Z,14.37
2022-10-11T10:44:23.808Z,13.20
2022-10-11T10:47:04.466Z,13.40
2022-10-11T10:49:53.532Z,13.17
2022-10-11T10:52:45.523Z,13.17
2022-10-11T10:55:22.779Z,12.80
2022-10-11T10:58:04.149Z,12.67
2022-10-11T11:00:39.634Z,12.50
2022-10-11T11:03:10.761Z,13.10
2022-10-11T11:05:45.468Z,12.50
2022-10-11T11:08:16.462Z,11.87
2022-10-11T11:10:49.737Z,12.47
2022-10-11T11:13:28.627Z,12.53
2022-10-11T11:16:05.705Z,12.87
2022-10-11T11:18:40.884Z,13.30
2022-10-11T11:21:24.912Z,12.17
2022-10-11T11:24:01.532Z,12.53
2022-10-11T11:26:34.442Z,13.60
2022-10-11T11:29:14.735Z,13.10
2022-10-11T11:32:11.641Z,13.43
2022-10-11T11:34:44.011Z,12.83
2022-10-11T11:37:22.883Z,13.43
2022-10-11T11:39:52.426Z,13.37
2022-10-11T11:42:23.265Z,12.73
2022-10-11T11:44:51.024Z,12.93
2022-10-11T11:47:22.997Z,12.17
2022-10-11T11:49:56.813Z,12.80
2022-10-11T11:52:29.625Z,11.83
2022-10-11T11:55:05.372Z,12.00
2022-10-11T11:57:44.150Z,11.83
2022-10-11T12:00:17.594Z,12.13
2022-10-11T12:02:49.024Z,13.10
2022-10-11T12:05:19.774Z,12.13
2022-10-11T12:07:51.743Z,13.70
2022-10-11T12:10:28.102Z,12.50
2022-10-11T12:13:19.227Z,11.83
2022-10-11T12:15:59.853Z,12.57
2022-10-11T12:18:27.947Z,11.83
2022-10-11T12:21:05.760Z,12.30
2022-10-11T12:23:46.096Z,11.40
2022-10-11T12:26:38.614Z,11.67
2022-10-11T12:29:40.532Z,11.13
2022-10-11T12:32:47.022Z,11.30
2022-10-11T12:36:02.661Z,11.57
2022-10-11T12:38:34.347Z,10.57
2022-10-11T12:41:50.451Z,11.00
2022-10-11T12:44:23.249Z,9.73
2022-10-11T12:47:35.454Z,10.10
2022-10-11T12:50:12.981Z,9.83
2022-10-11T12:52:49.793Z,10.20
2022-10-11T12:55:37.389Z,9.17
2022-10-11T12:58:44.057Z,9.27
2022-10-11T13:01:20.133Z,9.00
2022-10-11T13:03:53.027Z,8.33
2022-10-11T13:06:24.950Z,8.87
2022-10-11T13:08:54.891Z,8.47
2022-10-11T13:11:24.625Z,8.07
2022-10-11T13:13:58.952Z,7.93
2022-10-11T13:16:28.800Z,7.57
2022-10-11T13:18:58.340Z,8.50
2022-10-11T13:21:29.660Z,7.90
2022-10-11T13:24:00.080Z,7.80
2022-10-11T13:26:28.007Z,8.17
2022-10-11T13:28:57.226Z,8.10
2022-10-11T13:31:25.177Z,8.40
2022-10-11T13:33:55.141Z,8.47
2022-10-11T13:36:24.455Z,7.73
2022-10-11T13:38:54.217Z,7.83
2022-10-11T13:41:22.308Z,8.70
2022-10-11T13:43:49.441Z,8.23
2022-10-11T13:46:21.855Z,8.70
2022-10-11T13:49:00.665Z,9.33
2022-10-11T13:51:32.543Z,8.77
2022-10-11T13:54:02.061Z,8.73
2022-10-11T13:56:31.893Z,8.73
2022-10-11T13:59:00.166Z,8.90
2022-10-11T14:01:35.657Z,7.60
2022-10-11T14:04:05.342Z,9.37
2022-10-11T14:06:40.656Z,8.33
2022-10-11T14:09:17.601Z,9.60
2022-10-11T14:11:44.631Z,10.07
2022-10-11T14:14:41.840Z,8.20
2022-10-11T14:17:18.294Z,7.80
2022-10-11T14:19:47.248Z,8.20
2022-10-11T14:22:16.162Z,8.20
2022-10-11T14:24:43.508Z,8.00
2022-10-11T14:27:17.691Z,7.93
2022-10-11T14:29:55.613Z,8.07
2022-10-11T14:32:35.041Z,8.03
2022-10-11T14:35:02.491Z,7.67
2022-10-11T14:37:29.459Z,7.63
2022-10-11T14:39:56.449Z,8.40
2022-10-11T14:42:23.447Z,7.27
2022-10-11T14:44:50.433Z,8.07
2022-10-11T14:47:18.215Z,8.20
2022-10-11T14:49:46.624Z,8.07
2022-10-11T14:52:14.061Z,8.17
2022-10-11T14:54:41.075Z,8.30
2022-10-11T14:57:10.870Z,7.70
2022-10-11T14:59:38.322Z,7.73
2022-10-11T15:02:07.575Z,8.10
2022-10-11T15:04:34.558Z,8.40
2022-10-11T15:07:03.796Z,8.40
2022-10-11T15:09:31.243Z,7.60
2022-10-11T15:11:58.665Z,7.53
2022-10-11T15:14:26.077Z,7.67
2022-10-11T15:16:53.340Z,7.90
2022-10-11T15:19:22.120Z,8.20
2022-10-11T15:21:49.262Z,7.60
2022-10-11T15:24:21.198Z,8.03
2022-10-11T15:26:48.737Z,8.30
2022-10-11T15:29:17.960Z,8.13
2022-10-11T15:31:45.981Z,9.10
2022-10-11T15:34:13.096Z,7.87
2022-10-11T15:36:40.134Z,8.27
2022-10-11T15:39:25.055Z,8.17
2022-10-11T15:41:51.935Z,8.30
2022-10-11T15:44:19.078Z,8.67
2022-10-11T15:46:46.089Z,9.07
2022-10-11T15:49:13.732Z,8.17
2022-10-11T15:51:40.794Z,8.27
2022-10-11T15:54:07.729Z,8.00
2022-10-11T15:56:36.034Z,8.90
2022-10-11T15:59:03.062Z,8.93
2022-10-11T16:01:30.138Z,8.97
2022-10-11T16:03:57.128Z,10.20
2022-10-11T16:06:24.071Z,8.50
2022-10-11T16:08:51.057Z,8.80
2022-10-11T16:11:18.097Z,8.40
2022-10-11T16:13:46.492Z,8.70
2022-10-11T16:16:13.423Z,8.60
2022-10-11T16:18:40.495Z,9.17
2022-10-11T16:21:10.140Z,9.13
2022-10-11T16:23:38.205Z,8.83
2022-10-11T16:26:07.256Z,8.50
2022-10-11T16:28:34.746Z,8.23
2022-10-11T16:31:07.604Z,8.50
2022-10-11T16:33:34.533Z,8.57
2022-10-11T16:36:25.283Z,9.20
2022-10-11T16:38:52.195Z,8.70
2022-10-11T16:41:19.102Z,8.70
2022-10-11T16:43:49.776Z,9.20
2022-10-11T16:46:18.090Z,9.27
2022-10-11T16:48:45.115Z,8.87
2022-10-11T16:51:12.275Z,9.03
2022-10-11T16:53:39.246Z,8.37
2022-10-11T16:56:07.258Z,9.07
2022-10-11T16:58:35.683Z,8.80
2022-10-11T17:01:03.077Z,9.47
2022-10-11T17:03:31.406Z,9.97
2022-10-11T17:05:58.287Z,9.27
2022-10-11T17:08:25.171Z,9.57
2022-10-11T17:10:53.145Z,9.63
2022-10-11T17:13:20.072Z,9.27
2022-10-11T17:15:47.508Z,9.70
2022-10-11T17:18:14.396Z,8.97
2022-10-11T17:20:42.889Z,9.43
2022-10-11T17:23:09.756Z,10.03
2022-10-11T17:25:41.252Z,9.70
2022-10-11T17:28:08.272Z,9.97
2022-10-11T17:30:35.251Z,9.70
2022-10-11T17:33:02.293Z,10.40
2022-10-11T17:35:31.776Z,10.40
2022-10-11T17:38:05.782Z,10.00
2022-10-11T17:40:33.163Z,10.17
2022-10-11T17:43:00.564Z,10.60
2022-10-11T17:45:27.487Z,10.20
2022-10-11T17:47:54.483Z,10.07
2022-10-11T17:50:22.439Z,9.87
2022-10-11T17:52:49.380Z,9.80
2022-10-11T17:55:18.081Z,10.00
2022-10-11T17:57:44.966Z,10.83
2022-10-11T18:00:13.261Z,10.67
2022-10-11T18:02:41.437Z,10.93
2022-10-11T18:05:09.596Z,10.67
2022-10-11T18:07:36.447Z,11.30
2022-10-11T18:10:03.999Z,10.70
2022-10-11T18:12:32.215Z,10.57
2022-10-11T18:14:59.052Z,10.87
2022-10-11T18:17:26.216Z,10.13
2022-10-11T18:19:53.603Z,9.70
2022-10-11T18:22:21.372Z,9.57
2022-10-11T18:24:48.414Z,10.13
2022-10-11T18:27:15.348Z,10.60
2022-10-11T18:29:43.568Z,10.23
2022-10-11T18:32:10.505Z,11.10
2022-10-11T18:34:37.628Z,10.13
2022-10-11T18:37:04.695Z,10.07
2022-10-11T18:39:33.409Z,10.90
2022-10-11T18:42:04.190Z,10.30
2022-10-11T18:44:31.507Z,9.80
2022-10-11T18:47:00.759Z,10.27
2022-10-11T18:49:27.627Z,10.17
2022-10-11T18:51:54.592Z,9.90
2022-10-11T18:54:21.706Z,10.63
2022-10-11T18:56:48.895Z,11.60
2022-10-11T18:59:15.902Z,11.47
2022-10-11T19:01:44.832Z,10.70
2022-10-11T19:04:18.270Z,10.63
2022-10-11T19:06:49.534Z,10.40
2022-10-11T19:09:18.875Z,10.90
2022-10-11T19:11:46.588Z,9.87
2022-10-11T19:14:16.708Z,10.47
2022-10-11T19:16:49.148Z,9.83
2022-10-11T19:19:18.899Z,9.97
2022-10-11T19:21:48.660Z,10.60
2022-10-11T19:24:15.960Z,11.17
2022-10-11T19:26:43.624Z,10.13
2022-10-11T19:29:14.543Z,11.07
2022-10-11T19:31:45.311Z,11.07
2022-10-11T19:34:12.456Z,11.27
2022-10-11T19:36:42.735Z,10.60
2022-10-11T19:39:11.812Z,10.70
2022-10-11T19:41:38.746Z,11.00
2022-10-11T19:44:05.999Z,11.30
2022-10-11T19:49:22.505Z,11.60
2022-10-11T19:51:50.827Z,10.73
2022-10-11T19:54:17.993Z,10.43
2022-10-11T19:56:44.966Z,10.27
2022-10-11T19:59:12.971Z,11.27
2022-10-11T20:01:41.147Z,10.80
2022-10-11T20:04:22.930Z,11.47
2022-10-11T20:06:55.984Z,11.43
2022-10-11T20:09:30.980Z,10.20
2022-10-11T20:11:58.458Z,10.93
2022-10-11T20:14:25.621Z,11.30
2022-10-11T20:16:52.538Z,11.60
2022-10-11T20:19:19.753Z,11.67
2022-10-11T20:21:47.631Z,10.97
2022-10-11T20:24:15.867Z,10.93
2022-10-11T20:26:42.772Z,12.03
2022-10-11T20:29:09.607Z,11.00
2022-10-11T20:31:41.683Z,11.00
2022-10-11T20:34:10.004Z,11.40
2022-10-11T20:36:37.519Z,10.80
2022-10-11T20:39:05.656Z,11.00
2022-10-11T20:41:42.893Z,11.67
2022-10-11T20:44:11.177Z,11.63
2022-10-11T20:46:39.191Z,10.90
2022-10-11T20:49:08.130Z,11.97
2022-10-11T20:51:36.997Z,11.20
2022-10-11T20:54:04.943Z,12.30
2022-10-11T20:56:33.753Z,12.30
2022-10-11T20:59:00.964Z,12.13
2022-10-11T21:01:29.986Z,11.57
2022-10-11T21:03:58.105Z,12.40
2022-10-11T21:06:25.192Z,11.93
2022-10-11T21:08:54.029Z,11.67
2022-10-11T21:11:20.965Z,11.47
2022-10-11T21:13:53.364Z,11.83
2022-10-11T21:16:20.211Z,11.60
2022-10-11T21:18:50.256Z,11.90
2022-10-11T21:21:17.400Z,12.00
2022-10-11T21:23:44.366Z,11.77
2022-10-11T21:26:13.701Z,11.50
2022-10-11T21:28:41.178Z,11.90
2022-10-11T21:31:12.406Z,11.47
2022-10-11T21:33:40.240Z,12.50
2022-10-11T21:36:08.818Z,11.60
2022-10-11T21:38:36.455Z,11.83
2022-10-11T21:41:03.602Z,12.03
2022-10-11T21:43:30.488Z,11.70
2022-10-11T21:45:57.697Z,11.97
2022-10-11T21:48:25.957Z,12.20
2022-10-11T21:50:53.745Z,12.70
2022-10-11T21:53:21.010Z,12.30
2022-10-11T21:55:47.975Z,12.80
2022-10-11T21:58:14.845Z,12.23
2022-10-11T22:00:41.740Z,12.03
2022-10-11T22:03:08.841Z,13.43
2022-10-11T22:05:43.360Z,12.87
2022-10-11T22:08:10.308Z,13.10
2022-10-11T22:10:37.223Z,12.70
2022-10-11T22:13:04.127Z,12.50
2022-10-11T22:15:33.565Z,12.17
2022-10-11T22:18:00.500Z,12.97
2022-10-11T22:20:27.357Z,11.90
2022-10-11T22:22:55.607Z,12.50
2022-10-11T22:25:22.896Z,12.70
2022-10-11T22:27:49.833Z,13.40
2022-10-11T22:30:16.908Z,12.63
2022-10-11T22:32:43.785Z,11.87
2022-10-11T22:35:10.707Z,13.17
2022-10-11T22:37:37.910Z,13.10
2022-10-11T22:40:07.750Z,13.17
2022-10-11T22:42:34.630Z,12.67
2022-10-11T22:45:01.527Z,12.90
2022-10-11T22:47:28.403Z,12.87
2022-10-11T22:49:55.302Z,12.90
2022-10-11T22:52:22.213Z,12.40
2022-10-11T22:54:49.178Z,12.90
2022-10-11T22:57:17.425Z,12.07
2022-10-11T22:59:44.938Z,13.17
